createdAt,value
2023-03-15T06:01:35.034Z,100.00
2023-03-15T06:04:38.066Z,100.00
2023-03-15T06:07:40.512Z,100.00
2023-03-15T06:10:42.993Z,100.00
2023-03-15T06:13:45.470Z,100.00
2023-03-15T06:16:49.285Z,100.00
2023-03-15T06:19:51.818Z,100.00
2023-03-15T06:22:54.540Z,100.00
2023-03-15T06:25:57.052Z,100.00
2023-03-15T06:33:25.167Z,100.00
2023-03-15T06:36:27.634Z,100.00
2023-03-15T06:39:30.453Z,100.00
2023-03-15T06:42:32.914Z,100.00
2023-03-15T06:45:35.407Z,100.00
2023-03-15T06:48:39.197Z,100.00
2023-03-15T06:51:45.009Z,100.00
2023-03-15T06:54:47.505Z,100.00
2023-03-15T06:57:49.990Z,100.00
2023-03-15T07:00:52.490Z,100.00
2023-03-15T07:03:56.340Z,100.00
2023-03-15T07:06:58.830Z,100.00
2023-03-15T07:10:01.326Z,100.00
2023-03-15T07:13:05.128Z,100.00
2023-03-15T07:16:07.890Z,100.00
2023-03-15T07:19:11.700Z,100.00
2023-03-15T07:22:14.349Z,100.00
2023-03-15T07:25:23.713Z,100.00
2023-03-15T07:28:27.508Z,100.00
2023-03-15T07:31:30.044Z,100.00
2023-03-15T07:34:33.879Z,100.00
2023-03-15T07:37:36.355Z,100.00
2023-03-15T07:40:38.927Z,100.00
2023-03-15T07:43:41.467Z,100.00
2023-03-15T07:46:44.012Z,100.00
2023-03-15T07:49:47.872Z,100.00
2023-03-15T07:52:50.353Z,100.00
2023-03-15T07:55:53.164Z,100.00
2023-03-15T07:58:55.618Z,100.00
2023-03-15T08:01:59.622Z,100.00
2023-03-15T08:05:05.757Z,100.00
2023-03-15T08:08:08.455Z,100.00
2023-03-15T08:11:10.999Z,100.00
2023-03-15T08:14:13.503Z,100.00
2023-03-15T08:17:16.291Z,100.00
2023-03-15T08:20:20.351Z,100.00
2023-03-15T08:23:23.294Z,100.00
2023-03-15T08:26:25.933Z,100.00
2023-03-15T08:29:28.747Z,100.00
2023-03-15T08:32:31.334Z,100.00
2023-03-15T08:35:35.511Z,100.00
2023-03-15T08:38:38.609Z,100.00
2023-03-15T08:41:43.458Z,100.00
2023-03-15T08:44:45.937Z,100.00
2023-03-15T08:47:48.493Z,100.00
2023-03-15T08:50:52.397Z,100.00
2023-03-15T08:53:54.998Z,100.00
2023-03-15T08:56:57.463Z,100.00
2023-03-15T09:00:00.205Z,100.00
2023-03-15T09:03:02.728Z,100.00
2023-03-15T09:06:07.435Z,100.00
2023-03-15T09:09:09.966Z,100.00
2023-03-15T09:12:12.841Z,100.00
2023-03-15T09:15:16.220Z,100.00
2023-03-15T09:18:18.906Z,100.00
2023-03-15T09:21:22.822Z,100.00
2023-03-15T09:24:25.439Z,100.00
2023-03-15T09:27:27.924Z,100.00
2023-03-15T09:30:30.438Z,100.00
2023-03-15T09:33:33.704Z,100.00
2023-03-15T09:36:37.542Z,100.00
2023-03-15T09:39:40.070Z,100.00
2023-03-15T09:42:55.980Z,100.00
2023-03-15T09:46:12.002Z,100.00
2023-03-15T09:49:20.462Z,100.00
2023-03-15T09:52:31.619Z,100.00
2023-03-15T09:55:34.187Z,100.00
2023-03-15T09:58:37.236Z,100.00
2023-03-15T10:01:42.805Z,100.00
2023-03-15T10:04:48.302Z,99.63
2023-03-15T10:07:52.307Z,100.00
2023-03-15T10:11:01.266Z,100.00
2023-03-15T10:14:19.127Z,97.55
2023-03-15T10:17:30.634Z,92.83
2023-03-15T10:20:37.734Z,91.80
2023-03-15T10:23:47.494Z,90.55
2023-03-15T10:26:52.375Z,88.94
2023-03-15T10:29:58.372Z,90.27
2023-03-15T10:33:03.976Z,92.33
2023-03-15T10:36:15.443Z,93.79
2023-03-15T10:39:19.517Z,96.91
2023-03-15T10:42:30.556Z,98.08
2023-03-15T10:45:33.946Z,90.10
2023-03-15T10:48:37.998Z,93.29
2023-03-15T10:51:43.421Z,89.65
2023-03-15T10:54:50.092Z,90.60
2023-03-15T10:57:57.777Z,89.24
2023-03-15T11:01:02.322Z,92.35
2023-03-15T11:04:18.532Z,93.93
2023-03-15T11:07:21.379Z,90.18
2023-03-15T11:10:27.042Z,90.01
2023-03-15T11:13:31.343Z,82.29
2023-03-15T11:16:36.697Z,84.85
2023-03-15T11:19:42.794Z,88.37
2023-03-15T11:22:45.281Z,87.17
2023-03-15T11:25:49.207Z,81.01
2023-03-15T11:28:54.828Z,80.79
2023-03-15T11:31:59.159Z,80.28
2023-03-15T11:35:05.687Z,79.12
2023-03-15T11:38:15.376Z,73.58
2023-03-15T11:41:34.089Z,77.78
2023-03-15T11:44:40.834Z,80.04
2023-03-15T11:47:48.737Z,77.27
2023-03-15T11:50:53.930Z,80.11
2023-03-15T11:54:07.183Z,76.80
2023-03-15T11:57:44.645Z,74.78
2023-03-15T12:00:54.823Z,78.94
2023-03-15T12:04:27.583Z,78.27
2023-03-15T12:07:39.078Z,75.30
2023-03-15T12:10:49.702Z,70.97
2023-03-15T12:14:04.856Z,64.32
2023-03-15T12:17:42.590Z,66.16
2023-03-15T12:20:51.907Z,66.74
2023-03-15T12:24:01.617Z,65.19
2023-03-15T12:27:06.703Z,63.19
2023-03-15T12:30:22.321Z,61.12
2023-03-15T12:33:25.428Z,60.73
2023-03-15T12:36:36.160Z,61.05
2023-03-15T12:39:45.032Z,62.14
2023-03-15T12:43:13.049Z,61.05
2023-03-15T12:46:53.091Z,64.31
2023-03-15T12:49:57.134Z,64.49
2023-03-15T12:53:01.618Z,61.31
2023-03-15T12:56:41.980Z,61.90
2023-03-15T12:59:51.464Z,62.41
2023-03-15T13:03:02.002Z,65.12
2023-03-15T13:06:14.200Z,76.52
2023-03-15T13:09:27.010Z,100.00
2023-03-15T13:12:35.549Z,100.00
2023-03-15T13:15:43.792Z,100.00
2023-03-15T13:18:55.049Z,100.00
2023-03-15T13:22:08.434Z,100.00
2023-03-15T13:25:18.116Z,100.00
2023-03-15T13:28:23.684Z,100.00
2023-03-15T13:31:29.933Z,100.00
2023-03-15T13:34:34.614Z,100.00
2023-03-15T13:37:41.888Z,100.00
2023-03-15T13:40:47.579Z,100.00
2023-03-15T13:43:52.221Z,100.00
2023-03-15T13:46:55.337Z,100.00
2023-03-15T13:49:57.874Z,100.00
2023-03-15T13:53:01.933Z,100.00
2023-03-15T13:56:08.930Z,100.00
2023-03-15T13:59:12.278Z,100.00
2023-03-15T14:02:18.927Z,100.00
2023-03-15T14:05:27.420Z,100.00
2023-03-15T14:08:33.926Z,100.00
2023-03-15T14:11:38.755Z,96.56
2023-03-15T14:14:51.073Z,95.07
2023-03-15T14:18:02.093Z,93.02
2023-03-15T14:21:09.213Z,92.90
2023-03-15T14:24:18.059Z,89.87
2023-03-15T14:27:22.452Z,89.54
2023-03-15T14:30:26.473Z,83.65
2023-03-15T14:33:34.127Z,89.05
2023-03-15T14:36:42.705Z,91.52
2023-03-15T14:39:46.640Z,91.29
2023-03-15T14:42:50.614Z,91.86
2023-03-15T14:45:53.188Z,87.01
2023-03-15T14:48:55.696Z,86.60
2023-03-15T14:52:01.856Z,92.33
2023-03-15T14:55:06.550Z,92.74
2023-03-15T14:58:13.139Z,89.65
2023-03-15T15:01:18.677Z,88.57
2023-03-15T15:04:21.796Z,90.03
2023-03-15T15:07:24.670Z,90.66
2023-03-15T15:10:28.942Z,95.86
2023-03-15T15:13:32.465Z,98.67
2023-03-15T15:16:35.070Z,99.80
2023-03-15T15:19:37.675Z,100.00
2023-03-15T15:22:40.776Z,100.00
2023-03-15T15:25:46.627Z,100.00
2023-03-15T15:28:50.799Z,100.00
2023-03-15T15:31:53.301Z,100.00
2023-03-15T15:34:55.777Z,100.00
2023-03-15T15:37:58.390Z,100.00
2023-03-15T15:41:02.259Z,100.00
2023-03-15T15:44:04.822Z,99.73
2023-03-15T15:47:07.461Z,99.99
2023-03-15T15:50:13.357Z,100.00
2023-03-15T15:53:18.792Z,99.02
2023-03-15T15:56:27.694Z,97.29
2023-03-15T15:59:30.981Z,97.59
2023-03-15T16:02:34.486Z,98.27
2023-03-15T16:05:37.036Z,99.52
2023-03-15T16:08:41.057Z,100.00
2023-03-15T16:11:44.980Z,100.00
2023-03-15T16:14:47.489Z,100.00
2023-03-15T16:17:50.525Z,100.00
2023-03-15T16:20:53.272Z,100.00
2023-03-15T16:23:59.916Z,100.00
2023-03-15T16:27:06.166Z,100.00
2023-03-15T16:30:13.873Z,100.00
2023-03-15T16:33:18.438Z,100.00
2023-03-15T16:36:22.703Z,100.00
2023-03-15T16:39:25.486Z,100.00
2023-03-15T16:42:29.289Z,100.00
2023-03-15T16:45:31.768Z,100.00
2023-03-15T16:48:34.299Z,100.00
2023-03-15T16:51:38.342Z,100.00
2023-03-15T16:54:43.311Z,100.00
2023-03-15T16:57:47.186Z,100.00
2023-03-15T17:00:49.629Z,100.00
2023-03-15T17:03:52.165Z,100.00
2023-03-15T17:06:54.732Z,100.00
2023-03-15T17:09:57.400Z,100.00
2023-03-15T17:13:03.233Z,100.00
2023-03-15T17:16:06.599Z,100.00
2023-03-15T17:19:12.459Z,100.00
2023-03-15T17:22:15.428Z,100.00
2023-03-15T17:25:18.706Z,100.00
2023-03-15T17:28:22.532Z,100.00
2023-03-15T17:31:25.883Z,100.00
2023-03-15T17:34:28.554Z,100.00
2023-03-15T17:37:34.625Z,100.00
